createdAt,value
2022-10-18T00:02:31.432Z,24.70
2022-10-18T00:07:33.316Z,24.05
2022-10-18T00:12:36.065Z,25.08
2022-10-18T00:17:38.607Z,25.10
2022-10-18T00:22:41.200Z,26.00
2022-10-18T00:27:42.733Z,25.30
2022-10-18T00:32:44.235Z,25.10
2022-10-18T00:37:45.742Z,25.05
2022-10-18T00:42:47.240Z,23.20
2022-10-18T00:47:53.772Z,23.77
2022-10-18T00:53:00.326Z,23.90
2022-10-18T00:58:02.261Z,24.48
2022-10-18T01:03:03.768Z,23.92
2022-10-18T01:08:35.175Z,23.35
2022-10-18T01:14:02.631Z,23.15
2022-10-18T01:19:17.928Z,24.17
2022-10-18T01:24:41.079Z,24.23
2022-10-18T01:30:00.929Z,24.42
2022-10-18T01:35:07.020Z,25.10
2022-10-18T01:40:09.515Z,25.35
2022-10-18T01:45:11.722Z,24.75
2022-10-18T01:50:13.554Z,25.25
2022-10-18T01:55:15.356Z,23.48
2022-10-18T02:00:19.554Z,25.40
2022-10-18T02:05:30.836Z,25.15
2022-10-18T02:10:41.890Z,24.08
2022-10-18T02:15:47.463Z,24.63
2022-10-18T02:20:49.187Z,24.10
2022-10-18T02:25:51.020Z,24.00
2022-10-18T02:31:14.210Z,25.60
2022-10-18T02:36:22.594Z,23.88
2022-10-18T02:41:26.017Z,24.08
2022-10-18T02:51:34.159Z,24.13
2022-10-18T02:56:36.123Z,24.35
2022-10-18T03:01:37.687Z,23.42
2022-10-18T03:06:39.201Z,24.23
2022-10-18T03:11:40.693Z,24.58
2022-10-18T03:16:42.216Z,24.77
2022-10-18T03:21:43.719Z,25.02
2022-10-18T03:26:45.195Z,24.90
2022-10-18T03:31:46.765Z,26.23
2022-10-18T03:36:48.280Z,26.35
2022-10-18T03:41:50.538Z,26.15
2022-10-18T03:46:52.058Z,25.95
2022-10-18T03:51:53.620Z,25.52
2022-10-18T03:56:55.241Z,24.05
2022-10-18T04:01:56.925Z,22.60
2022-10-18T04:06:58.461Z,22.75
2022-10-18T04:11:59.996Z,23.90
2022-10-18T04:17:01.520Z,25.02
2022-10-18T04:22:03.087Z,24.45
2022-10-18T04:27:05.356Z,22.77
2022-10-18T04:32:06.854Z,21.70
2022-10-18T04:37:08.368Z,22.00
2022-10-18T04:42:09.881Z,22.77
2022-10-18T04:47:11.414Z,22.65
2022-10-18T04:52:13.384Z,23.65
2022-10-18T04:57:14.940Z,23.30
2022-10-18T05:02:16.458Z,23.45
2022-10-18T05:07:18.027Z,24.95
2022-10-18T05:12:19.535Z,24.75
2022-10-18T05:17:21.083Z,24.00
2022-10-18T05:22:22.591Z,24.63
2022-10-18T05:27:24.079Z,22.75
2022-10-18T05:32:25.614Z,22.08
2022-10-18T05:37:28.442Z,23.08
2022-10-18T05:42:30.317Z,22.23
2022-10-18T05:47:32.229Z,22.70
2022-10-18T05:52:34.150Z,22.90
2022-10-18T05:57:35.919Z,22.05
2022-10-18T06:02:37.503Z,22.77
2022-10-18T06:07:38.993Z,21.88
2022-10-18T06:12:40.547Z,21.10
2022-10-18T06:17:42.084Z,21.92
2022-10-18T06:22:43.577Z,22.77
2022-10-18T06:27:45.086Z,21.00
2022-10-18T06:32:46.702Z,20.95
2022-10-18T06:37:48.354Z,20.08
2022-10-18T06:43:00.011Z,21.00
2022-10-18T06:48:07.610Z,21.38
2022-10-18T06:53:09.745Z,19.73
2022-10-18T06:58:11.256Z,19.50
2022-10-18T07:03:12.861Z,20.67
2022-10-18T07:08:14.510Z,19.73
2022-10-18T07:13:33.089Z,18.67
2022-10-18T07:18:36.192Z,18.88
2022-10-18T07:23:39.812Z,19.27
2022-10-18T07:28:42.312Z,19.02
2022-10-18T07:33:43.890Z,17.92
2022-10-18T07:38:45.386Z,18.33
2022-10-18T07:43:48.964Z,19.45
2022-10-18T07:48:50.819Z,18.20
2022-10-18T07:53:52.436Z,18.55
2022-10-18T07:58:55.961Z,17.85
2022-10-18T08:04:03.253Z,18.40
2022-10-18T08:09:07.757Z,18.88
2022-10-18T08:14:09.245Z,19.13
2022-10-18T08:19:10.785Z,18.33
2022-10-18T08:24:12.293Z,17.90
2022-10-18T08:29:31.871Z,18.20
2022-10-18T08:34:34.875Z,18.73
2022-10-18T08:39:36.413Z,18.77
2022-10-18T08:44:45.785Z,19.73
2022-10-18T08:49:52.364Z,17.45
2022-10-18T08:55:08.057Z,18.80
2022-10-18T09:00:23.336Z,19.33
2022-10-18T09:05:43.212Z,17.95
2022-10-18T09:11:07.802Z,18.30
2022-10-18T09:16:20.358Z,18.50
2022-10-18T09:21:36.912Z,18.15
2022-10-18T09:26:47.190Z,19.45
2022-10-18T09:31:57.948Z,18.90
2022-10-18T09:37:00.018Z,19.70
2022-10-18T09:42:37.097Z,19.48
2022-10-18T09:47:42.550Z,19.50
2022-10-18T09:52:51.727Z,19.00
2022-10-18T09:58:02.625Z,17.38
2022-10-18T10:03:10.963Z,17.38
2022-10-18T10:08:12.659Z,16.70
2022-10-18T10:13:27.954Z,16.70
2022-10-18T10:18:31.291Z,16.95
2022-10-18T10:23:47.212Z,15.65
2022-10-18T10:28:49.970Z,17.13
2022-10-18T10:34:01.771Z,15.88
2022-10-18T10:39:09.892Z,17.25
2022-10-18T10:44:19.809Z,17.77
2022-10-18T10:49:40.752Z,18.15
2022-10-18T10:54:50.294Z,17.15
2022-10-18T10:59:55.711Z,13.45
2022-10-18T11:05:15.386Z,12.50
2022-10-18T11:10:23.106Z,11.43
2022-10-18T11:15:43.748Z,8.95
2022-10-18T11:21:11.798Z,8.52
2022-10-18T11:26:13.215Z,8.13
2022-10-18T11:31:24.804Z,6.30
2022-10-18T11:36:55.007Z,6.00
2022-10-18T11:42:21.312Z,5.85
2022-10-18T11:47:25.969Z,6.05
2022-10-18T11:52:36.409Z,5.18
2022-10-18T11:57:43.768Z,4.18
2022-10-18T12:03:15.642Z,4.25
2022-10-18T12:08:25.433Z,3.67
2022-10-18T12:13:36.587Z,3.90
2022-10-18T12:18:48.841Z,3.40
2022-10-18T12:24:03.405Z,3.17
2022-10-18T12:29:22.027Z,2.92
2022-10-18T12:34:23.775Z,2.13
2022-10-18T12:39:38.778Z,2.60
2022-10-18T12:45:01.723Z,2.78
2022-10-18T12:50:07.630Z,2.40
2022-10-18T12:55:16.949Z,2.05
2022-10-18T13:00:31.374Z,1.85
2022-10-18T13:06:06.416Z,2.00
2022-10-18T13:11:08.248Z,1.90
2022-10-18T13:16:14.836Z,2.03
2022-10-18T13:21:34.553Z,2.00
2022-10-18T13:26:42.825Z,2.17
2022-10-18T13:32:06.114Z,2.15
2022-10-18T13:37:10.590Z,2.83
2022-10-18T13:42:15.150Z,2.13
2022-10-18T13:47:33.787Z,1.60
2022-10-18T13:53:17.340Z,1.90
2022-10-18T13:58:48.771Z,1.60
2022-10-18T14:04:22.112Z,2.08
2022-10-18T14:09:40.242Z,2.05
2022-10-18T14:15:09.091Z,2.20
2022-10-18T14:20:18.843Z,2.28
2022-10-18T14:25:25.669Z,2.22
2022-10-18T14:30:27.171Z,2.20
2022-10-18T14:35:35.147Z,2.20
2022-10-18T14:40:39.143Z,2.50
2022-10-18T14:45:41.528Z,2.90
2022-10-18T14:50:44.888Z,2.97
2022-10-18T14:55:56.652Z,3.53
2022-10-18T15:00:59.099Z,2.78
2022-10-18T15:06:05.378Z,2.95
2022-10-18T15:11:10.510Z,2.58
2022-10-18T15:16:17.673Z,3.15
2022-10-18T15:21:23.781Z,2.95
2022-10-18T15:26:29.434Z,2.45
2022-10-18T15:31:35.658Z,2.55
2022-10-18T15:36:37.468Z,2.63
2022-10-18T15:41:41.666Z,3.03
2022-10-18T15:46:43.994Z,3.20
2022-10-18T15:51:49.904Z,2.80
2022-10-18T15:56:51.597Z,3.10
2022-10-18T16:01:53.425Z,2.80
2022-10-18T16:06:56.421Z,3.42
2022-10-18T16:11:58.500Z,4.40
2022-10-18T16:17:03.379Z,3.10
2022-10-18T16:22:07.155Z,3.00
2022-10-18T16:27:09.737Z,2.90
2022-10-18T16:32:11.261Z,2.90
2022-10-18T16:37:12.737Z,2.72
2022-10-18T16:42:14.240Z,3.20
2022-10-18T16:47:16.415Z,3.10
2022-10-18T16:52:17.914Z,3.60
2022-10-18T16:57:19.485Z,3.60
2022-10-18T17:02:20.985Z,4.30
2022-10-18T17:07:24.796Z,3.75
2022-10-18T17:12:26.272Z,4.40
2022-10-18T17:17:27.851Z,4.10
2022-10-18T17:22:29.349Z,3.90
2022-10-18T17:27:31.266Z,4.18
2022-10-18T17:32:33.261Z,4.55
2022-10-18T17:37:35.308Z,3.53
2022-10-18T17:42:37.162Z,3.50
2022-10-18T17:47:38.803Z,3.28
2022-10-18T17:52:47.208Z,3.20
2022-10-18T17:57:48.759Z,2.88
2022-10-18T18:02:50.288Z,3.85
2022-10-18T18:07:51.893Z,3.65
2022-10-18T18:12:53.355Z,3.70
2022-10-18T18:17:58.336Z,3.67
2022-10-18T18:23:00.173Z,3.83
2022-10-18T18:28:06.678Z,4.43
2022-10-18T18:33:09.080Z,4.32
2022-10-18T18:38:10.557Z,3.85
2022-10-18T18:43:23.213Z,4.03
2022-10-18T18:48:26.549Z,4.55
2022-10-18T18:53:29.756Z,4.63
2022-10-18T18:58:31.858Z,4.38
2022-10-18T19:03:33.607Z,4.25
2022-10-18T19:08:36.753Z,4.55
2022-10-18T19:13:38.239Z,4.80
2022-10-18T19:18:39.756Z,5.65
2022-10-18T19:23:41.236Z,5.40
2022-10-18T19:28:42.862Z,6.30
2022-10-18T19:33:55.616Z,6.40
2022-10-18T19:39:01.085Z,6.15
2022-10-18T19:44:02.750Z,6.18
2022-10-18T19:49:04.398Z,7.18
2022-10-18T19:54:05.978Z,6.75
2022-10-18T19:59:08.060Z,6.85
2022-10-18T20:04:10.387Z,6.72
2022-10-18T20:09:16.082Z,6.70
2022-10-18T20:14:21.200Z,7.05
2022-10-18T20:19:22.826Z,7.82
2022-10-18T20:24:24.353Z,7.20
2022-10-18T20:29:25.899Z,6.57
2022-10-18T20:34:28.525Z,7.18
2022-10-18T20:39:30.057Z,7.15
2022-10-18T20:44:33.792Z,7.30
2022-10-18T20:49:35.295Z,6.60
2022-10-18T20:54:36.873Z,7.70
2022-10-18T20:59:38.473Z,7.25
2022-10-18T21:04:42.193Z,7.55
2022-10-18T21:09:44.040Z,7.13
2022-10-18T21:14:45.583Z,7.30
2022-10-18T21:19:47.124Z,7.20
2022-10-18T21:24:50.593Z,6.40
2022-10-18T21:29:52.138Z,6.90
2022-10-18T21:34:53.666Z,8.07
2022-10-18T21:39:55.260Z,9.02
2022-10-18T21:44:56.868Z,8.43
2022-10-18T21:49:58.582Z,9.63
2022-10-18T21:55:00.190Z,10.32
2022-10-18T22:00:02.493Z,9.77
2022-10-18T22:05:08.208Z,9.90
2022-10-18T22:10:12.732Z,15.57
2022-10-18T22:15:14.352Z,9.70
2022-10-18T22:20:16.077Z,9.10
2022-10-18T22:25:17.720Z,8.88
2022-10-18T22:30:19.314Z,9.18
2022-10-18T22:35:20.817Z,8.73
2022-10-18T22:40:22.324Z,9.63
2022-10-18T22:45:23.847Z,10.10
2022-10-18T22:50:25.381Z,10.15
2022-10-18T22:55:26.836Z,11.45
2022-10-18T23:00:28.367Z,12.00
2022-10-18T23:05:29.934Z,12.60
2022-10-18T23:10:31.536Z,14.70
2022-10-18T23:15:33.607Z,14.82
2022-10-18T23:20:35.344Z,15.43
2022-10-18T23:25:37.421Z,15.50
2022-10-18T23:30:39.010Z,15.98
2022-10-18T23:35:40.512Z,15.82
2022-10-18T23:40:42.024Z,15.57
2022-10-18T23:45:44.408Z,15.20
2022-10-18T23:50:45.939Z,16.85
2022-10-18T23:56:01.070Z,16.60
